Time;durP1;ratioP1;P1;durP2;ratioP2;P2;SDS_P1;SDS_P2;PMS_P1;PMS_P2;Temp;Humidity;BMP_temperature;BMP_pressure;BME280_temperature;BME280_humidity;BME280_pressure;Samples;Min_cycle;Max_cycle;Signal;HPM_P1;HPM_P2
2023/03/11 00:01:49;;;;;;;9.88;7.35;;;;;;;0.13;100.00;99734.94;5010018;28;20176;-41
2023/03/11 00:04:14;;;;;;;10.80;6.70;;;;;;;0.14;100.00;99735.81;5023081;28;20226;-41
2023/03/11 00:06:40;;;;;;;12.52;6.40;;;;;;;0.16;100.00;99755.09;5029758;28;20626;-41
2023/03/11 00:09:05;;;;;;;9.27;7.05;;;;;;;0.11;100.00;99756.91;5017360;28;20264;-41
2023/03/11 00:11:31;;;;;;;8.13;6.75;;;;;;;0.11;100.00;99764.78;5021487;28;20203;-42
2023/03/11 00:13:56;;;;;;;9.38;7.13;;;;;;;0.10;100.00;99771.84;5021504;28;20252;-41
2023/03/11 00:16:22;;;;;;;9.65;7.13;;;;;;;0.11;100.00;99760.44;5021863;28;20188;-39
2023/03/11 00:18:51;;;;;;;10.50;8.25;;;;;;;0.13;100.00;99771.81;5013780;28;20187;-41
2023/03/11 00:21:19;;;;;;;12.15;8.32;;;;;;;0.05;100.00;99781.56;5026712;28;20164;-40
2023/03/11 00:23:45;;;;;;;9.43;7.93;;;;;;;0.07;100.00;99784.19;5025170;28;20212;-40
2023/03/11 00:26:11;;;;;;;11.07;7.88;;;;;;;0.01;100.00;99797.41;5019317;28;20172;-42
2023/03/11 00:28:37;;;;;;;11.23;8.20;;;;;;;-0.06;100.00;99783.47;5020219;28;20634;-41
2023/03/11 00:31:03;;;;;;;14.07;8.20;;;;;;;-0.05;100.00;99791.31;5025694;28;20185;-42
2023/03/11 00:33:28;;;;;;;14.52;8.20;;;;;;;-0.14;100.00;99807.22;5021526;28;20572;-40
2023/03/11 00:35:54;;;;;;;11.95;9.30;;;;;;;-0.10;100.00;99813.34;5017591;28;20176;-42
2023/03/11 00:38:20;;;;;;;10.95;8.40;;;;;;;-0.03;100.00;99810.59;5013556;28;20208;-41
2023/03/11 00:40:47;;;;;;;12.77;8.40;;;;;;;-0.06;100.00;99813.28;5031502;28;20267;-41
2023/03/11 00:43:13;;;;;;;10.48;8.05;;;;;;;-0.02;100.00;99819.41;5024915;28;20266;-39
2023/03/11 00:45:39;;;;;;;10.45;7.85;;;;;;;-0.22;100.00;99827.50;5012872;28;20184;-41
2023/03/11 00:48:06;;;;;;;12.35;8.43;;;;;;;-0.13;100.00;99822.16;5024074;28;20195;-40
2023/03/11 00:50:34;;;;;;;10.13;8.18;;;;;;;-0.22;100.00;99828.38;5013922;28;20169;-42
2023/03/11 00:53:01;;;;;;;14.60;8.30;;;;;;;-0.22;100.00;99830.13;5025511;28;20204;-42
2023/03/11 00:55:32;;;;;;;12.30;8.45;;;;;;;-0.24;100.00;99827.53;5019490;28;20675;-41
2023/03/11 00:58:03;;;;;;;10.13;8.40;;;;;;;-0.25;100.00;99828.41;5011750;28;20240;-41
2023/03/11 01:00:36;;;;;;;10.75;7.55;;;;;;;-0.24;100.00;99842.41;5035680;28;20188;-41
2023/03/11 01:03:02;;;;;;;9.80;7.88;;;;;;;-0.24;100.00;99837.16;5018369;28;20805;-41
2023/03/11 01:05:30;;;;;;;9.45;8.02;;;;;;;-0.27;100.00;99839.84;5012853;28;20180;-40
2023/03/11 01:07:56;;;;;;;10.35;8.23;;;;;;;-0.26;100.00;99838.97;5011124;28;20565;-42
2023/03/11 01:10:21;;;;;;;9.93;8.23;;;;;;;-0.24;100.00;99845.06;5022262;28;20176;-42
2023/03/11 01:12:47;;;;;;;10.82;8.57;;;;;;;-0.28;100.00;99836.34;5029018;28;20207;-43
2023/03/11 01:15:19;;;;;;;13.40;9.18;;;;;;;-0.34;100.00;99846.91;5031467;28;20184;-40
2023/03/11 01:17:45;;;;;;;12.00;8.82;;;;;;;-0.28;100.00;99853.91;5019864;28;20176;-40
2023/03/11 01:20:11;;;;;;;10.95;8.57;;;;;;;-0.20;100.00;99857.31;5016545;28;20172;-39
2023/03/11 01:22:36;;;;;;;10.65;9.40;;;;;;;-0.25;100.00;99872.28;5026424;28;20691;-41
2023/03/11 01:25:03;;;;;;;13.63;9.00;;;;;;;-0.23;100.00;99860.84;5017974;28;20195;-41
2023/03/11 01:27:29;;;;;;;13.70;8.95;;;;;;;-0.21;100.00;99884.53;5012964;28;20264;-40
2023/03/11 01:29:55;;;;;;;11.63;9.18;;;;;;;-0.24;100.00;99880.16;5029776;28;20222;-37
2023/03/11 01:32:20;;;;;;;11.32;9.00;;;;;;;-0.18;100.00;99881.00;5020803;28;20616;-42
2023/03/11 01:34:46;;;;;;;10.55;8.73;;;;;;;-0.20;100.00;99891.53;5023842;28;20165;-41
2023/03/11 01:37:11;;;;;;;9.95;8.82;;;;;;;-0.24;100.00;99895.97;5016762;28;20657;-41
2023/03/11 01:39:37;;;;;;;12.43;9.13;;;;;;;-0.28;100.00;99894.25;5012338;28;20176;-39
2023/03/11 01:42:03;;;;;;;11.73;8.52;;;;;;;-0.26;100.00;99900.38;5025590;28;20274;-40
2023/03/11 01:44:28;;;;;;;11.93;8.82;;;;;;;-0.27;100.00;99898.59;5017537;28;20188;-42
2023/03/11 01:46:57;;;;;;;9.13;8.23;;;;;;;-0.28;100.00;99902.13;5025642;28;20272;-41
2023/03/11 01:49:27;;;;;;;9.85;8.38;;;;;;;-0.31;100.00;99909.19;5028551;28;20169;-42
2023/03/11 01:51:58;;;;;;;10.13;8.85;;;;;;;-0.32;100.00;99915.34;5025016;28;20204;-40
2023/03/11 01:54:32;;;;;;;9.25;8.02;;;;;;;-0.23;100.00;99907.34;5023160;28;20192;-40
2023/03/11 01:57:00;;;;;;;12.82;8.95;;;;;;;-0.37;100.00;99914.50;5020504;28;20220;-41
2023/03/11 01:59:31;;;;;;;9.60;7.47;;;;;;;-0.39;100.00;99917.16;5028928;23;20251;-86
2023/03/11 02:02:18;;;;;;;9.38;8.45;;;;;;;-0.38;100.00;99924.16;4977893;28;20257;-44
2023/03/11 02:04:44;;;;;;;10.65;8.18;;;;;;;-0.29;100.00;99923.19;4952808;28;20228;-42
2023/03/11 02:07:11;;;;;;;9.82;8.32;;;;;;;-0.38;100.00;99931.19;4962312;28;20277;-42
2023/03/11 02:09:37;;;;;;;9.40;8.40;;;;;;;-0.33;100.00;99927.63;4968754;28;20182;-45
2023/03/11 02:12:04;;;;;;;9.88;8.45;;;;;;;-0.36;100.00;99938.16;4962458;28;20202;-46
2023/03/11 02:14:30;;;;;;;10.75;9.32;;;;;;;-0.32;100.00;99941.66;4965376;28;20189;-42
2023/03/11 02:16:57;;;;;;;14.65;10.75;;;;;;;-0.34;100.00;99939.03;4956558;28;20248;-43
2023/03/11 02:19:29;;;;;;;12.18;10.88;;;;;;;-0.31;100.00;99938.13;4942756;28;20191;-43
2023/03/11 02:21:56;;;;;;;14.50;11.90;;;;;;;-0.31;100.00;99941.63;4960323;28;20185;-45
2023/03/11 02:24:34;;;;;;;15.52;11.77;;;;;;;-0.32;100.00;99950.41;4960730;28;20703;-44
2023/03/11 02:27:04;;;;;;;14.73;12.85;;;;;;;-0.35;100.00;99954.81;4958035;28;20181;-44
2023/03/11 02:29:32;;;;;;;15.70;14.10;;;;;;;-0.35;100.00;99960.09;4954506;28;20205;-43
2023/03/11 02:32:01;;;;;;;15.50;12.55;;;;;;;-0.32;100.00;99960.09;4957890;28;20206;-42
2023/03/11 02:34:30;;;;;;;14.00;12.50;;;;;;;-0.31;100.00;99953.91;4959529;28;20190;-43
2023/03/11 02:36:57;;;;;;;14.20;12.70;;;;;;;-0.40;100.00;99964.53;4960348;28;20198;-44
2023/03/11 02:39:31;;;;;;;15.35;12.95;;;;;;;-0.43;100.00;99961.03;4966499;28;20324;-45
2023/03/11 02:41:59;;;;;;;13.63;11.48;;;;;;;-0.35;100.00;99961.00;4953427;28;20177;-48
2023/03/11 02:44:25;;;;;;;15.57;12.32;;;;;;;-0.31;100.00;99967.09;4967688;28;20312;-42
2023/03/11 02:46:51;;;;;;;12.88;11.15;;;;;;;-0.37;100.00;99968.03;4958882;28;20497;-42
2023/03/11 02:49:18;;;;;;;16.42;12.02;;;;;;;-0.31;100.00;99965.31;4956860;28;20178;-42
2023/03/11 02:51:43;;;;;;;14.20;12.18;;;;;;;-0.37;100.00;99970.66;4949615;28;20205;-47
2023/03/11 02:54:09;;;;;;;14.63;12.02;;;;;;;-0.37;100.00;99972.38;4956318;28;20583;-42
2023/03/11 02:56:35;;;;;;;16.17;13.10;;;;;;;-0.38;100.00;99976.78;4959997;28;20602;-43
2023/03/11 02:59:01;;;;;;;15.68;12.23;;;;;;;-0.45;100.00;99989.13;4963173;28;20248;-41
2023/03/11 03:01:28;;;;;;;14.88;12.20;;;;;;;-0.44;100.00;99989.97;4914588;28;1178123;-44
2023/03/11 03:03:54;;;;;;;14.20;11.15;;;;;;;-0.49;100.00;100002.31;4942321;29;20631;-42
2023/03/11 03:06:19;;;;;;;12.82;11.45;;;;;;;-0.59;100.00;100011.13;4930734;29;20252;-41
2023/03/11 03:08:46;;;;;;;12.75;11.45;;;;;;;-0.64;100.00;100019.03;4954563;28;20279;-45
2023/03/11 03:11:12;;;;;;;14.52;11.63;;;;;;;-0.67;100.00;100024.34;4963228;28;20273;-44
2023/03/11 03:13:38;;;;;;;15.50;12.25;;;;;;;-0.65;100.00;100030.47;4954519;28;20634;-45
2023/03/11 03:16:04;;;;;;;14.27;11.60;;;;;;;-0.67;100.00;100029.59;4951069;28;20281;-43
2023/03/11 03:18:32;;;;;;;16.35;12.43;;;;;;;-0.70;100.00;100048.91;4942869;29;20217;-45
2023/03/11 03:20:58;;;;;;;13.02;11.60;;;;;;;-0.68;100.00;100035.72;4954591;28;20238;-42
2023/03/11 03:23:23;;;;;;;12.57;11.20;;;;;;;-0.60;100.00;100039.19;4956170;28;20581;-42
2023/03/11 03:25:49;;;;;;;14.55;11.43;;;;;;;-0.73;100.00;100048.91;4941316;29;20595;-41
2023/03/11 03:28:14;;;;;;;14.25;12.18;;;;;;;-0.67;100.00;100053.28;4939660;29;20222;-42
2023/03/11 03:30:43;;;;;;;13.88;11.70;;;;;;;-0.72;100.00;100062.94;4952879;28;20202;-42
2023/03/11 03:33:10;;;;;;;13.65;11.68;;;;;;;-0.82;100.00;100059.47;4954660;28;20590;-42
2023/03/11 03:35:40;;;;;;;16.15;11.48;;;;;;;-0.79;100.00;100066.47;4955415;28;20198;-42
2023/03/11 03:38:12;;;;;;;15.80;11.18;;;;;;;-0.89;100.00;100063.88;4929767;29;20186;-41
2023/03/11 03:40:44;;;;;;;14.02;10.57;;;;;;;-0.91;100.00;100072.66;4939359;28;20571;-42
2023/03/11 03:43:09;;;;;;;12.13;10.65;;;;;;;-0.96;100.00;100080.56;4942379;28;20806;-42
2023/03/11 03:45:40;;;;;;;14.77;10.02;;;;;;;-0.99;100.00;100080.56;4939206;28;20191;-41
2023/03/11 03:48:06;;;;;;;11.90;9.88;;;;;;;-1.01;100.00;100078.81;4955076;28;20190;-42
2023/03/11 03:50:35;;;;;;;13.68;9.82;;;;;;;-1.05;100.00;100084.09;4956427;28;20195;-43
2023/03/11 03:53:01;;;;;;;11.70;9.68;;;;;;;-1.07;100.00;100087.63;4958719;28;20207;-42
2023/03/11 03:55:27;;;;;;;11.43;9.65;;;;;;;-1.13;100.00;100080.63;4943282;28;20266;-42
2023/03/11 03:57:53;;;;;;;11.60;9.63;;;;;;;-1.21;100.00;100090.28;4961186;28;20317;-42
2023/03/11 04:00:24;;;;;;;11.23;10.07;;;;;;;-1.17;100.00;100091.16;4966208;28;20195;-42
2023/03/11 04:02:55;;;;;;;13.00;9.23;;;;;;;-1.25;100.00;100089.41;4960449;28;20207;-41
2023/03/11 04:05:28;;;;;;;13.10;9.40;;;;;;;-1.17;100.00;100091.16;4959048;28;20269;-40
2023/03/11 04:07:54;;;;;;;11.02;9.18;;;;;;;-1.17;100.00;100099.03;4960487;28;20205;-41
2023/03/11 04:10:21;;;;;;;12.18;9.88;;;;;;;-1.34;100.00;100115.69;4946051;29;20194;-42
2023/03/11 04:12:47;;;;;;;11.25;9.48;;;;;;;-1.37;100.00;100117.47;4942689;29;20697;-43
2023/03/11 04:15:12;;;;;;;12.18;9.18;;;;;;;-1.28;100.00;100110.44;4958974;28;20187;-42
2023/03/11 04:17:40;;;;;;;13.20;8.93;;;;;;;-1.34;100.00;100115.69;4962222;28;20193;-41
2023/03/11 04:20:08;;;;;;;12.60;9.70;;;;;;;-1.37;100.00;100117.47;4944269;29;20682;-41
2023/03/11 04:22:34;;;;;;;11.50;9.65;;;;;;;-1.38;100.00;100118.31;4978209;28;20618;-40
2023/03/11 04:24:59;;;;;;;12.13;9.63;;;;;;;-1.52;100.00;100124.47;4959740;28;20182;-40
2023/03/11 04:27:25;;;;;;;11.85;9.13;;;;;;;-1.52;100.00;100123.59;4956062;28;20195;-40
2023/03/11 04:29:51;;;;;;;11.73;9.38;;;;;;;-1.57;100.00;100130.63;4959250;28;20175;-41
2023/03/11 04:32:17;;;;;;;13.77;10.35;;;;;;;-1.57;100.00;100138.50;4955659;28;20227;-42
2023/03/11 04:34:44;;;;;;;12.02;8.63;;;;;;;-1.53;100.00;100129.72;4942819;28;20612;-41
2023/03/11 04:37:12;;;;;;;11.70;9.43;;;;;;;-1.57;100.00;100143.75;4956914;28;20187;-42
2023/03/11 04:39:37;;;;;;;10.77;8.55;;;;;;;-1.66;100.00;100132.38;4944734;29;20187;-41
2023/03/11 04:42:03;;;;;;;12.25;9.00;;;;;;;-1.61;100.00;100139.38;4942488;29;20178;-42
2023/03/11 04:44:29;;;;;;;12.52;8.85;;;;;;;-1.68;100.00;100139.38;4940963;29;20198;-43
2023/03/11 04:46:54;;;;;;;12.25;8.57;;;;;;;-1.68;100.00;100149.88;4959510;28;20190;-42
2023/03/11 04:49:20;;;;;;;10.25;8.00;;;;;;;-1.70;100.00;100151.63;4946450;29;20350;-41
2023/03/11 04:51:47;;;;;;;12.38;8.60;;;;;;;-1.70;100.00;100166.50;4959775;28;20205;-44
2023/03/11 04:54:15;;;;;;;11.18;8.77;;;;;;;-1.73;100.00;100164.75;4960135;28;20198;-42
2023/03/11 04:56:41;;;;;;;10.65;8.75;;;;;;;-1.77;100.00;100168.25;4952226;28;20662;-43
2023/03/11 04:59:07;;;;;;;9.13;7.43;;;;;;;-1.83;100.00;100173.50;4935516;29;20310;-43
2023/03/11 05:01:34;;;;;;;10.40;8.10;;;;;;;-1.82;100.00;100183.09;4950422;29;20171;-40
2023/03/11 05:04:02;;;;;;;10.38;8.05;;;;;;;-1.74;100.00;100181.38;4950675;28;20199;-43
2023/03/11 05:06:28;;;;;;;8.77;7.80;;;;;;;-1.68;100.00;100186.63;4950282;28;20207;-41
2023/03/11 05:08:54;;;;;;;10.73;7.97;;;;;;;-1.76;100.00;100187.50;4950486;28;20692;-43
2023/03/11 05:11:20;;;;;;;15.15;7.70;;;;;;;-1.81;100.00;100186.63;4950414;29;20243;-42
2023/03/11 05:13:47;;;;;;;8.98;7.28;;;;;;;-1.79;100.00;100198.88;4950008;28;20206;-42
2023/03/11 05:16:12;;;;;;;11.05;8.07;;;;;;;-1.85;100.00;100198.88;4950409;29;20527;-42
2023/03/11 05:18:38;;;;;;;10.40;7.88;;;;;;;-1.83;100.00;100205.00;4950332;28;20184;-44
2023/03/11 05:21:04;;;;;;;9.88;7.40;;;;;;;-1.78;100.00;100203.25;4950194;29;20245;-40
2023/03/11 05:23:32;;;;;;;10.45;7.80;;;;;;;-1.84;100.00;100204.97;4950168;28;20191;-45
2023/03/11 05:25:59;;;;;;;9.40;8.02;;;;;;;-1.77;100.00;100209.38;4949912;28;20191;-46
2023/03/11 05:28:24;;;;;;;11.25;8.50;;;;;;;-1.83;100.00;100197.13;4950285;29;20167;-43
2023/03/11 05:30:51;;;;;;;10.88;8.50;;;;;;;-1.87;100.00;100196.22;4950104;29;20171;-43
2023/03/11 05:33:18;;;;;;;9.88;7.75;;;;;;;-1.89;100.00;100197.09;4949801;28;20223;-43
2023/03/11 05:35:44;;;;;;;12.15;8.65;;;;;;;-1.94;100.00;100215.47;4949982;28;20171;-46
2023/03/11 05:38:10;;;;;;;9.82;8.63;;;;;;;-1.95;100.00;100208.44;4934020;29;20613;-45
2023/03/11 05:40:36;;;;;;;10.20;8.35;;;;;;;-1.96;100.00;100211.09;4949924;29;20263;-46
2023/03/11 05:43:02;;;;;;;12.15;8.20;;;;;;;-1.97;100.00;100228.59;4935062;29;20862;-41
2023/03/11 05:45:30;;;;;;;9.57;8.32;;;;;;;-1.99;100.00;100225.09;4949049;28;20187;-43
2023/03/11 05:47:58;;;;;;;12.85;9.20;;;;;;;-2.10;100.00;100222.44;4949606;29;20247;-42
2023/03/11 05:50:24;;;;;;;9.75;8.43;;;;;;;-2.07;100.00;100230.28;4934961;29;20588;-43
2023/03/11 05:52:50;;;;;;;9.65;7.78;;;;;;;-1.96;100.00;100232.97;4934552;29;20822;-41
2023/03/11 05:55:16;;;;;;;10.80;8.65;;;;;;;-2.05;100.00;100240.81;4949417;29;20194;-43
2023/03/11 05:57:43;;;;;;;12.07;8.48;;;;;;;-2.01;100.00;100233.81;4949340;29;20172;-41
2023/03/11 06:00:11;;;;;;;9.90;8.75;;;;;;;-1.98;100.00;100244.34;4949596;28;20191;-44
2023/03/11 06:02:40;;;;;;;10.35;8.50;;;;;;;-1.99;100.00;100267.09;4934893;29;20211;-41
2023/03/11 06:05:08;;;;;;;11.90;8.93;;;;;;;-2.04;100.00;100246.94;4949388;28;20206;-43
2023/03/11 06:07:35;;;;;;;9.48;7.90;;;;;;;-2.10;100.00;100267.03;4949314;29;20222;-44
2023/03/11 06:10:02;;;;;;;11.63;8.85;;;;;;;-2.04;100.00;100270.56;4949753;28;20202;-47
2023/03/11 06:12:29;;;;;;;10.65;7.75;;;;;;;-2.09;100.00;100275.78;4950075;28;20337;-47
2023/03/11 06:15:09;;;;;;;9.50;7.80;;;;;;;-2.05;100.00;100284.56;4950211;29;20179;-45
2023/03/11 06:17:35;;;;;;;9.07;7.65;;;;;;;-2.06;100.00;100281.03;4948446;28;20238;-42
2023/03/11 06:20:00;;;;;;;9.77;7.97;;;;;;;-2.05;100.00;100285.44;4934379;29;20631;-43
2023/03/11 06:22:26;;;;;;;9.48;7.53;;;;;;;-2.05;100.00;100285.44;4949198;29;20231;-46
2023/03/11 06:24:52;;;;;;;10.30;7.80;;;;;;;-2.04;100.00;100292.41;4948909;29;20171;-41
2023/03/11 06:27:18;;;;;;;9.20;7.72;;;;;;;-1.95;100.00;100297.69;4949058;29;20183;-42
2023/03/11 06:29:43;;;;;;;9.90;7.65;;;;;;;-1.88;100.00;100289.00;4948555;29;20598;-41
2023/03/11 06:32:10;;;;;;;10.73;8.13;;;;;;;-1.76;100.00;100287.28;4948850;29;20622;-41
2023/03/11 06:34:36;;;;;;;11.18;7.70;;;;;;;-1.67;100.00;100293.44;4948910;28;20197;-43
2023/03/11 06:37:02;;;;;;;10.35;8.05;;;;;;;-1.63;100.00;100293.47;4948661;29;20176;-42
2023/03/11 06:39:27;;;;;;;9.55;7.63;;;;;;;-1.55;100.00;100299.56;4949214;29;20559;-44
2023/03/11 06:41:53;;;;;;;9.00;7.53;;;;;;;-1.51;100.00;100301.34;4948748;28;20195;-42
2023/03/11 06:44:19;;;;;;;9.15;7.05;;;;;;;-1.51;100.00;100310.13;4948452;28;20666;-46
2023/03/11 06:46:45;;;;;;;11.60;7.72;;;;;;;-1.46;100.00;100304.88;4949179;29;20163;-42
2023/03/11 06:49:12;;;;;;;8.73;6.68;;;;;;;-1.34;100.00;100318.03;4948140;28;20191;-43
2023/03/11 06:51:39;;;;;;;9.40;7.18;;;;;;;-1.17;100.00;100317.19;4948638;29;20654;-44
2023/03/11 06:54:06;;;;;;;8.27;6.70;;;;;;;-0.98;100.00;100321.59;4948932;28;20199;-44
2023/03/11 06:56:32;;;;;;;9.18;6.40;;;;;;;-0.72;100.00;100333.84;4948554;29;20635;-44
2023/03/11 06:59:02;;;;;;;10.77;7.38;;;;;;;-0.56;100.00;100329.47;4949067;28;20179;-44
2023/03/11 07:01:30;;;;;;;8.70;6.65;;;;;;;-0.19;100.00;100335.56;4949682;29;20258;-41
2023/03/11 07:03:57;;;;;;;7.47;6.40;;;;;;;-0.16;100.00;100325.00;4951594;28;20198;-46
2023/03/11 07:06:25;;;;;;;8.85;6.20;;;;;;;-0.20;100.00;100341.69;4969833;28;20174;-44
2023/03/11 07:08:57;;;;;;;8.38;5.40;;;;;;;0.24;100.00;100330.16;4970827;28;20184;-43
2023/03/11 07:11:25;;;;;;;5.30;4.80;;;;;;;0.49;100.00;100324.75;4954556;28;20254;-47
2023/03/11 07:13:54;;;;;;;7.20;4.82;;;;;;;0.76;100.00;100334.25;4953477;28;20193;-46
2023/03/11 07:16:29;;;;;;;4.40;3.97;;;;;;;0.71;100.00;100334.28;4970367;28;20540;-46
2023/03/11 07:19:02;;;;;;;5.25;4.07;;;;;;;1.09;100.00;100335.78;4970562;28;20244;-42
2023/03/11 07:21:30;;;;;;;7.78;3.92;;;;;;;1.40;100.00;100330.25;4971742;28;20213;-45
2023/03/11 07:23:59;;;;;;;4.97;3.40;;;;;;;1.36;100.00;100336.47;4970381;28;20751;-43
2023/03/11 07:26:27;;;;;;;5.30;3.38;;;;;;;1.59;100.00;100326.56;4970851;28;20574;-44
2023/03/11 07:28:55;;;;;;;4.10;3.08;;;;;;;1.88;98.86;100328.06;4937971;28;20154;-43
2023/03/11 07:31:24;;;;;;;3.53;2.53;;;;;;;1.90;96.48;100320.97;4954438;28;20261;-42
2023/03/11 07:33:50;;;;;;;4.72;2.42;;;;;;;2.15;94.64;100318.94;4954531;28;20220;-44
2023/03/11 07:36:18;;;;;;;4.90;2.47;;;;;;;2.08;92.07;100322.53;4971546;28;20174;-45
2023/03/11 07:38:44;;;;;;;2.35;2.15;;;;;;;2.23;90.04;100313.53;4970290;28;20194;-46
2023/03/11 07:41:11;;;;;;;2.90;2.30;;;;;;;2.64;88.43;100314.75;4970393;28;20166;-43
2023/03/11 07:43:37;;;;;;;2.20;2.00;;;;;;;2.48;86.89;100314.97;4969954;28;20189;-45
2023/03/11 07:46:10;;;;;;;2.83;2.53;;;;;;;2.49;85.73;100310.56;4970523;28;20174;-46
2023/03/11 07:48:37;;;;;;;2.55;2.25;;;;;;;2.84;85.07;100311.81;4971638;28;20162;-44
2023/03/11 07:51:09;;;;;;;4.32;2.53;;;;;;;3.04;83.63;100315.06;4971655;28;20305;-42
2023/03/11 07:53:35;;;;;;;3.60;2.10;;;;;;;3.17;82.52;100313.09;4954469;28;20297;-43
2023/03/11 07:56:02;;;;;;;2.70;2.40;;;;;;;3.55;81.08;100305.41;4971098;28;20636;-45
2023/03/11 07:58:28;;;;;;;3.53;2.55;;;;;;;3.00;79.80;100293.97;4970216;28;20333;-46
2023/03/11 08:00:55;;;;;;;4.18;2.00;;;;;;;3.24;78.65;100303.28;4971445;28;20740;-46
2023/03/11 08:03:23;;;;;;;3.00;2.00;;;;;;;3.76;78.18;100296.16;4971397;28;20272;-44
2023/03/11 08:05:49;;;;;;;2.97;2.00;;;;;;;3.34;77.44;100291.59;4953065;28;20180;-43
2023/03/11 08:08:14;;;;;;;4.13;2.33;;;;;;;3.44;76.43;100289.69;4971206;28;20170;-45
2023/03/11 08:10:40;;;;;;;3.58;2.25;;;;;;;3.79;75.79;100289.03;4968875;28;20656;-44
2023/03/11 08:13:05;;;;;;;3.58;2.25;;;;;;;3.67;75.42;100292.81;4971317;28;20206;-45
2023/03/11 08:15:31;;;;;;;2.28;2.00;;;;;;;4.00;74.75;100284.22;4971004;28;20174;-44
2023/03/11 08:17:56;;;;;;;2.60;2.10;;;;;;;3.75;74.57;100291.78;4971210;28;20178;-44
2023/03/11 08:20:22;;;;;;;2.10;1.90;;;;;;;3.50;74.50;100301.03;4970860;28;20246;-41
2023/03/11 08:22:48;;;;;;;2.40;2.20;;;;;;;3.81;74.66;100302.25;5021693;23;20620;-42
2023/03/11 08:25:13;;;;;;;2.15;1.95;;;;;;;3.78;74.27;100304.94;5037747;28;20179;-42
2023/03/11 08:27:39;;;;;;;2.97;2.10;;;;;;;3.89;74.09;100300.31;5032419;28;20226;-41
2023/03/11 08:30:06;;;;;;;2.47;1.60;;;;;;;3.80;73.31;100295.19;5036905;28;20186;-42
2023/03/11 08:32:32;;;;;;;5.97;1.60;;;;;;;3.66;73.27;100300.78;5037595;28;20224;-42
2023/03/11 08:34:57;;;;;;;4.78;1.83;;;;;;;4.09;73.19;100308.78;5036688;28;20188;-42
2023/03/11 08:37:23;;;;;;;1.95;1.55;;;;;;;4.24;72.68;100304.94;5039200;28;20258;-41
2023/03/11 08:39:49;;;;;;;2.80;1.67;;;;;;;3.69;71.35;100295.41;5038652;28;20279;-42
2023/03/11 08:42:16;;;;;;;2.95;1.77;;;;;;;3.85;70.90;100286.28;5043696;28;20195;-43
2023/03/11 08:44:42;;;;;;;3.97;1.67;;;;;;;3.92;70.55;100287.03;5040460;28;20183;-43
2023/03/11 08:47:07;;;;;;;1.33;1.23;;;;;;;3.84;68.64;100270.41;5045003;28;20253;-41
2023/03/11 08:49:33;;;;;;;1.20;1.20;;;;;;;4.04;67.78;100259.38;5041460;28;20203;-46
2023/03/11 08:52:00;;;;;;;1.33;1.00;;;;;;;4.08;66.40;100255.78;5038511;28;20218;-45
2023/03/11 08:54:26;;;;;;;3.50;1.33;;;;;;;4.08;65.90;100250.47;5045560;28;20244;-42
2023/03/11 08:56:51;;;;;;;1.50;1.40;;;;;;;4.17;66.09;100260.88;5042334;28;20183;-43
2023/03/11 08:59:17;;;;;;;1.60;1.50;;;;;;;4.33;66.02;100261.44;5044131;28;20175;-44
2023/03/11 09:01:42;;;;;;;2.28;1.25;;;;;;;4.44;65.10;100259.41;5040368;28;20176;-42
2023/03/11 09:04:08;;;;;;;2.58;1.35;;;;;;;4.47;64.23;100255.81;5041102;28;20210;-44
2023/03/11 09:06:33;;;;;;;3.60;1.50;;;;;;;4.36;64.21;100255.19;5040312;28;20180;-43
2023/03/11 09:08:59;;;;;;;1.60;1.45;;;;;;;4.78;64.58;100263.06;5023402;28;20648;-45
2023/03/11 09:11:25;;;;;;;2.75;1.40;;;;;;;4.49;64.15;100256.66;5040946;28;20179;-42
2023/03/11 09:13:50;;;;;;;1.67;1.30;;;;;;;4.52;64.37;100268.06;5029759;28;20718;-42
2023/03/11 09:16:19;;;;;;;2.05;1.60;;;;;;;4.54;63.97;100271.53;5024644;28;20264;-43
2023/03/11 09:18:45;;;;;;;3.33;1.38;;;;;;;4.81;64.35;100277.16;5044917;28;20542;-44
2023/03/11 09:21:10;;;;;;;3.47;1.55;;;;;;;4.61;63.81;100266.09;5040381;28;20199;-43
2023/03/11 09:23:36;;;;;;;5.35;1.60;;;;;;;4.44;64.19;100270.03;5040147;28;20299;-45
2023/03/11 09:26:02;;;;;;;1.73;1.50;;;;;;;4.71;63.77;100280.91;5041931;28;20199;-43
2023/03/11 09:28:27;;;;;;;3.15;1.98;;;;;;;4.25;64.02;100281.94;5041215;28;20175;-42
2023/03/11 09:30:52;;;;;;;2.92;1.42;;;;;;;4.73;64.03;100281.75;5042677;28;20658;-44
2023/03/11 09:33:18;;;;;;;2.67;1.48;;;;;;;4.93;62.67;100274.19;5041035;28;20567;-44
2023/03/11 09:35:43;;;;;;;1.40;1.30;;;;;;;4.38;63.04;100283.41;5038136;28;20179;-42
2023/03/11 09:38:09;;;;;;;3.67;1.20;;;;;;;4.68;63.24;100273.91;5039816;28;20179;-42
2023/03/11 09:40:51;;;;;;;2.65;1.33;;;;;;;4.52;62.58;100291.06;5038249;28;20224;-43
2023/03/11 09:43:46;;;;;;;1.25;1.17;;;;;;;4.47;63.57;100290.31;5043156;28;20710;-44
2023/03/11 09:46:54;;;;;;;3.58;1.40;;;;;;;4.66;63.50;100298.75;5016506;28;20657;-43
2023/03/11 09:49:44;;;;;;;3.47;1.13;;;;;;;5.23;63.53;100308.88;5023174;28;20191;-43
2023/03/11 09:52:13;;;;;;;1.30;1.08;;;;;;;5.14;63.89;100301.16;5040498;28;20258;-41
2023/03/11 09:54:44;;;;;;;5.47;1.25;;;;;;;5.12;63.33;100295.00;5043227;28;20242;-43
2023/03/11 09:57:17;;;;;;;1.15;1.00;;;;;;;5.08;63.75;100310.13;5039212;28;20314;-45
2023/03/11 09:59:44;;;;;;;1.52;0.85;;;;;;;5.21;63.29;100305.41;5041387;28;20599;-42
2023/03/11 10:02:18;;;;;;;1.85;1.08;;;;;;;4.97;63.22;100317.47;5026937;28;20639;-41
2023/03/11 10:05:02;;;;;;;1.70;1.20;;;;;;;5.40;63.39;100311.13;5040401;28;20175;-42
2023/03/11 10:07:34;;;;;;;5.55;1.40;;;;;;;5.26;63.11;100314.09;5038576;28;20176;-42
2023/03/11 10:09:59;;;;;;;2.03;1.08;;;;;;;5.28;62.39;100306.13;5039456;28;20183;-43
2023/03/11 10:13:08;;;;;;;2.90;1.25;;;;;;;5.14;62.71;100320.59;5037953;28;20206;-42
2023/03/11 10:15:48;;;;;;;2.30;1.30;;;;;;;5.20;62.97;100314.25;5032707;28;20186;-42
2023/03/11 10:18:33;;;;;;;2.67;1.10;;;;;;;5.44;63.16;100319.88;5041737;28;20244;-42
2023/03/11 10:21:34;;;;;;;1.25;1.10;;;;;;;5.36;63.03;100320.09;5041719;28;20292;-43
2023/03/11 10:24:05;;;;;;;3.72;1.00;;;;;;;5.33;63.09;100315.69;5035746;28;20306;-41
2023/03/11 10:26:36;;;;;;;3.45;1.33;;;;;;;5.21;62.95;100316.00;5038638;28;20844;-43
2023/03/11 10:29:10;;;;;;;2.00;0.95;;;;;;;4.92;62.74;100296.34;5038133;28;20228;-43
2023/03/11 10:31:58;;;;;;;1.63;1.00;;;;;;;5.18;62.42;100304.59;5035349;28;20289;-41
2023/03/11 10:34:37;;;;;;;1.25;0.95;;;;;;;5.19;62.43;100307.22;5031815;28;20200;-42
2023/03/11 10:37:23;;;;;;;1.45;0.70;;;;;;;5.46;61.12;100297.66;5036310;28;20195;-43
2023/03/11 10:39:50;;;;;;;5.85;1.05;;;;;;;5.26;61.47;100292.00;5040624;28;20187;-42
2023/03/11 10:42:21;;;;;;;3.47;0.98;;;;;;;5.39;61.57;100284.59;5043185;28;20191;-42
2023/03/11 10:44:47;;;;;;;3.92;1.15;;;;;;;5.08;61.86;100291.53;5020918;28;20249;-43
2023/03/11 10:47:17;;;;;;;2.90;0.98;;;;;;;5.31;62.17;100298.06;5038849;28;20184;-42
2023/03/11 10:49:43;;;;;;;3.53;0.95;;;;;;;5.40;61.87;100302.25;5039345;28;20196;-42
2023/03/11 10:52:09;;;;;;;3.60;0.80;;;;;;;5.19;62.01;100301.91;5038397;28;20623;-46
2023/03/11 10:54:38;;;;;;;2.90;1.15;;;;;;;5.31;62.20;100312.22;5037434;28;20258;-45
2023/03/11 10:57:22;;;;;;;2.33;1.00;;;;;;;5.00;62.68;100296.16;5044043;28;20713;-48
2023/03/11 10:59:50;;;;;;;1.88;0.80;;;;;;;5.21;63.04;100316.00;5026778;28;20274;-48
2023/03/11 11:02:24;;;;;;;3.60;0.98;;;;;;;5.42;63.73;100321.69;5039561;28;20186;-47
2023/03/11 11:05:21;;;;;;;2.70;0.73;;;;;;;5.01;62.47;100304.97;5007321;28;20780;-47
2023/03/11 11:07:48;;;;;;;3.90;0.95;;;;;;;5.19;62.11;100299.25;5029495;28;20207;-47
2023/03/11 11:10:16;;;;;;;3.85;1.00;;;;;;;4.86;62.00;100292.97;5039002;28;20552;-47
2023/03/11 11:13:00;;;;;;;2.08;0.93;;;;;;;5.46;62.58;100304.78;5029173;28;20212;-46
2023/03/11 11:15:37;;;;;;;1.85;0.70;;;;;;;5.25;61.86;100295.59;5035804;28;20183;-47
2023/03/11 11:18:06;;;;;;;1.23;0.70;;;;;;;5.57;62.53;100314.22;5037099;28;20252;-48
2023/03/11 11:20:32;;;;;;;1.67;0.95;;;;;;;5.67;62.49;100308.66;5038295;28;20657;-47
2023/03/11 11:23:02;;;;;;;4.20;1.35;;;;;;;5.49;62.40;100307.38;5034288;28;20202;-47
2023/03/11 11:25:37;;;;;;;1.73;1.00;;;;;;;5.59;62.39;100298.22;5028816;28;20192;-47